Aeroporto :
LOGIN :

Iscrizione | Disclaimer

   EN    FR    IT 

 










Sommario :    VFR   VFR Marginale   IFR   IFR Intensivo   IFR Molto Intensivo
Visibilità : 
Base nubi : 
>= 8 km
>= 3000ft
5 / 8 km
1000 / 3000 ft
1500m / 5 km
500 / 1000 ft
800 / 1500m
200 / 500 ft
< 800m
< 200 ft
Simboli :   Temporali  Nebbia  Neve Forte  Precipitazioni Forti  Vento > 20 kt
SIGMETs :   Varie  Temporali  Ghiacco  Turbolenza  Onda orograficha  Ceneri Vulcaniche






- Altitudine del aeroporto : 370 ft


EBBE - Beauvechain AB

ULTIMO METAR :
  • 210725Z 22010KT 9999 FEW160 SCT230 03/00 Q1026 BLU BLU

METARs OBSOLETI :
  • 210625Z 22010KT 9999 FEW160 SCT230 03/00 Q1026 BLU BLU
  • 210622Z 23010KT 9999 FEW160 SCT230 03/00 Q1026 BLU BLU
  • 210555Z AUTO 23010KT 9999 NCD 03/00 Q1025 BLU
  • 210525Z AUTO 24010KT 9999 NCD 03/00 Q1025 BLU
  • 210455Z AUTO 23011KT 9999 NCD 03/00 Q1025 BLU

TAF TAF EBBE
Valido dal 21 a 07 ore il 21 a 16 ore UTC


210541Z 2107/2116 24015KT 9999 FEW120 SCT150 BKN200
BECMG 2108/2110 FEW020 SCT120 BKN180
PROB30
TEMPO 2110/2112 SCT020 BKN100
BECMG 2112/2114 FEW028 BKN033



MetMap, La meteo Aeronautica in un colpo d'occhio ! - Copyright ORBIFLY Dicembre 2007 - Disclaimer

ORBIFLY MET'MAP TEAM :

Programmazione e sviluppo : Alexandra Zaïnal
Concezione : Baudouin d'Aumeries
Aiuto per la programmazione : Marc-Olivier Méhu
Supporto tecnico e logistico : Manuel Goepfert
Aiuto per la traduzione : Arnaldo La Scala

Contatto : metmap@orbifly.com




FONTI E CREDITI :

   NOAA